Observation data for Aspermont on 05/15/2018      Previous  Date  Next       Current Mesonet Observations  Soil Data  Daily Summary Page  Observations in Plain Language
KASR 150500Z 12006KT 24/13 A2989 RMK A01 T02400126  RH  050%=      5-min Rain = 0
KASR 150505Z 13006KT 24/13 A2989 RMK A01 T02390129  RH  051%=      5-min Rain = 0
KASR 150510Z 14006KT 24/13 A2989 RMK A01 T02380131  RH  052%=      5-min Rain = 0
KASR 150515Z 14005KT 24/13 A299 RMK A01 T02370133  RH  053%=      5-min Rain = 0
KASR 150520Z 14006KT 24/14 A2989 RMK A01 T02360135  RH  054%=      5-min Rain = 0
KASR 150525Z 16005KT 24/14 A2989 RMK A01 T02350137  RH  055%=      5-min Rain = 0
KASR 150530Z 16006KT 23/14 A2989 RMK A01 T02340139  RH  056%=      5-min Rain = 0
KASR 150535Z 16007KT 24/15 A2989 RMK A01 T02350145  RH  058%=      5-min Rain = 0
KASR 150540Z 16007KT 24/15 A2989 RMK A01 T02360149  RH  060%=      5-min Rain = 0
KASR 150545Z 17007KT 24/15 A2989 RMK A01 T02360153  RH  061%=      5-min Rain = 0
KASR 150550Z 18010KT 24/16 A2989 RMK A01 T02370160  RH  063%=      5-min Rain = 0
KASR 150555Z 19010KT 24/16 A2989 RMK A01 T02410162  RH  063%=      5-min Rain = 0
KASR 150600Z 19009KT 24/16 A2988 RMK A01 T02420162  RH  062%=      5-min Rain = 0
KASR 150605Z 19010KT 24/16 A2989 RMK A01 T02430161  RH  061%=      5-min Rain = 0
KASR 150610Z 20009KT 24/16 A2989 RMK A01 T02440158  RH  060%=      5-min Rain = 0
KASR 150615Z 21007KT 24/16 A2989 RMK A01 T02420156  RH  060%=      5-min Rain = 0
KASR 150620Z 21007KT 24/15 A2989 RMK A01 T02400153  RH  059%=      5-min Rain = 0
KASR 150625Z 22007KT 24/15 A2989 RMK A01 T02400150  RH  058%=      5-min Rain = 0
KASR 150630Z 21007KT 24/15 A2989 RMK A01 T02390148  RH  058%=      5-min Rain = 0
KASR 150635Z 21006KT 24/15 A2989 RMK A01 T02370147  RH  058%=      5-min Rain = 0
KASR 150640Z 21006KT 24/15 A299 RMK A01 T02350145  RH  058%=      5-min Rain = 0
KASR 150645Z 20006KT 23/14 A299 RMK A01 T02340143  RH  058%=      5-min Rain = 0
KASR 150650Z 20005KT 23/14 A299 RMK A01 T02290142  RH  059%=      5-min Rain = 0
KASR 150655Z 19005KT 23/14 A299 RMK A01 T02280141  RH  059%=      5-min Rain = 0
KASR 150700Z 19004KT 23/14 A2991 RMK A01 T02250140  RH  060%=      5-min Rain = 0
KASR 150705Z 24001KT 22/14 A2991 RMK A01 T02220139  RH  061%=      5-min Rain = 0
KASR 150710Z 35004KT 22/14 A2991 RMK A01 T02180138  RH  062%=      5-min Rain = 0
KASR 150715Z 36006KT 22/14 A2992 RMK A01 T02160138  RH  062%=      5-min Rain = 0
KASR 150720Z 35006KT 21/14 A2992 RMK A01 T02120140  RH  065%=      5-min Rain = 0
KASR 150725Z 33006KT 21/14 A2992 RMK A01 T02080139  RH  066%=      5-min Rain = 0
KASR 150730Z 33006KT 21/14 A2992 RMK A01 T02090138  RH  065%=      5-min Rain = 0
KASR 150735Z 32006KT 21/14 A2993 RMK A01 T02120137  RH  064%=      5-min Rain = 0
KASR 150740Z 33008KT 21/14 A2993 RMK A01 T02130137  RH  063%=      5-min Rain = 0
KASR 150745Z 34006KT 21/14 A2993 RMK A01 T02140136  RH  062%=      5-min Rain = 0
KASR 150750Z 32002KT 21/14 A2992 RMK A01 T02130135  RH  062%=      5-min Rain = 0
KASR 150755Z 30001KT 21/13 A2992 RMK A01 T02110134  RH  063%=      5-min Rain = 0
KASR 150800Z 33005KT 21/13 A2992 RMK A01 T02100133  RH  063%=      5-min Rain = 0
KASR 150805Z 31003KT 21/13 A2992 RMK A01 T02060132  RH  064%=      5-min Rain = 0
KASR 150810Z 29002KT 20/13 A2991 RMK A01 T02040132  RH  065%=      5-min Rain = 0
KASR 150815Z 24003KT 20/13 A2991 RMK A01 T02040132  RH  065%=      5-min Rain = 0
KASR 150820Z 24004KT 21/13 A2991 RMK A01 T02070132  RH  063%=      5-min Rain = 0
KASR 150825Z 23004KT 21/13 A299 RMK A01 T02060131  RH  063%=      5-min Rain = 0
KASR 150830Z 22004KT 21/13 A299 RMK A01 T02050130  RH  063%=      5-min Rain = 0
KASR 150835Z 23005KT 21/13 A299 RMK A01 T02050130  RH  063%=      5-min Rain = 0
KASR 150840Z 24004KT 20/13 A2989 RMK A01 T02040130  RH  063%=      5-min Rain = 0
KASR 150845Z 22005KT 20/13 A2989 RMK A01 T02020130  RH  064%=      5-min Rain = 0
KASR 150850Z 24005KT 20/13 A2989 RMK A01 T02000128  RH  064%=      5-min Rain = 0
KASR 150855Z 24004KT 20/13 A2989 RMK A01 T01990128  RH  065%=      5-min Rain = 0
KASR 150900Z 22004KT 20/13 A2989 RMK A01 T02010129  RH  065%=      5-min Rain = 0
KASR 150905Z 22006KT 20/13 A2989 RMK A01 T02000128  RH  065%=      5-min Rain = 0
KASR 150910Z 21006KT 20/13 A2988 RMK A01 T01990127  RH  064%=      5-min Rain = 0
KASR 150915Z 22005KT 20/13 A2988 RMK A01 T01990127  RH  064%=      5-min Rain = 0
KASR 150920Z 25003KT 20/13 A2989 RMK A01 T02000127  RH  064%=      5-min Rain = 0
KASR 150925Z 30002KT 20/13 A2989 RMK A01 T01970126  RH  065%=      5-min Rain = 0
KASR 150930Z 36001KT 19/13 A2989 RMK A01 T01910126  RH  067%=      5-min Rain = 0
KASR 150935Z 35001KT 19/13 A2989 RMK A01 T01890127  RH  068%=      5-min Rain = 0
KASR 150940Z 33001KT 19/13 A2989 RMK A01 T01860127  RH  070%=      5-min Rain = 0
KASR 150945Z 00000KT 18/13 A2989 RMK A01 T01830127  RH  071%=      5-min Rain = 0
KASR 150950Z 35001KT 18/13 A2989 RMK A01 T01800127  RH  073%=      5-min Rain = 0
KASR 150955Z 36002KT 18/13 A2989 RMK A01 T01810128  RH  072%=      5-min Rain = 0
KASR 151000Z 01002KT 18/13 A2989 RMK A01 T01800127  RH  072%=      5-min Rain = 0
KASR 151005Z 02001KT 18/13 A2989 RMK A01 T01800127  RH  073%=      5-min Rain = 0
KASR 151010Z 03001KT 18/13 A2989 RMK A01 T01800127  RH  072%=      5-min Rain = 0
KASR 151015Z 01001KT 18/13 A2989 RMK A01 T01790126  RH  073%=      5-min Rain = 0
KASR 151020Z 01000KT 18/13 A2989 RMK A01 T01780127  RH  073%=      5-min Rain = 0
KASR 151025Z 00000KT 18/13 A2989 RMK A01 T01780126  RH  073%=      5-min Rain = 0
KASR 151030Z 00000KT 18/13 A2989 RMK A01 T01790128  RH  073%=      5-min Rain = 0
KASR 151035Z 34000KT 18/13 A2989 RMK A01 T01790127  RH  073%=      5-min Rain = 0
KASR 151040Z 25002KT 18/13 A2989 RMK A01 T01810128  RH  073%=      5-min Rain = 0
KASR 151045Z 24003KT 19/13 A2988 RMK A01 T01880129  RH  070%=      5-min Rain = 0
KASR 151050Z 22004KT 19/13 A2988 RMK A01 T01920130  RH  069%=      5-min Rain = 0
KASR 151055Z 20004KT 19/13 A2988 RMK A01 T01920130  RH  069%=      5-min Rain = 0
KASR 151100Z 20005KT 19/13 A2988 RMK A01 T01910130  RH  069%=      5-min Rain = 0
KASR 151105Z 18007KT 19/13 A2988 RMK A01 T01920130  RH  069%=      5-min Rain = 0
KASR 151110Z 18008KT 19/13 A2987 RMK A01 T01930129  RH  068%=      5-min Rain = 0
KASR 151115Z 21007KT 20/13 A2987 RMK A01 T01970130  RH  067%=      5-min Rain = 0
KASR 151120Z 21006KT 20/13 A2987 RMK A01 T02010129  RH  065%=      5-min Rain = 0
KASR 151125Z 20006KT 20/13 A2987 RMK A01 T02010129  RH  064%=      5-min Rain = 0
KASR 151130Z 19005KT 20/13 A2988 RMK A01 T02010128  RH  064%=      5-min Rain = 0
KASR 151135Z 17005KT 20/13 A2988 RMK A01 T02000128  RH  065%=      5-min Rain = 0
KASR 151140Z 17004KT 20/13 A2988 RMK A01 T02000128  RH  065%=      5-min Rain = 0
KASR 151145Z 12002KT 20/13 A2989 RMK A01 T02000128  RH  064%=      5-min Rain = 0
KASR 151150Z 05004KT 20/13 A299 RMK A01 T01990128  RH  065%=      5-min Rain = 0
KASR 151155Z 07006KT 20/13 A299 RMK A01 T01970128  RH  066%=      5-min Rain = 0
KASR 151200Z 10005KT 20/13 A2991 RMK A01 T02000129  RH  065%=      5-min Rain = 0
KASR 151205Z 12005KT 21/13 A2991 RMK A01 T02060128  RH  062%=      5-min Rain = 0
KASR 151210Z 09005KT 21/13 A2992 RMK A01 T02100128  RH  061%=      5-min Rain = 0
KASR 151215Z 08006KT 21/13 A2992 RMK A01 T02140128  RH  059%=      5-min Rain = 0
KASR 151220Z 08006KT 22/13 A2993 RMK A01 T02170129  RH  058%=      5-min Rain = 0
KASR 151225Z 09006KT 22/13 A2994 RMK A01 T02190129  RH  057%=      5-min Rain = 0
KASR 151230Z 07007G12KT 22/13 A2994 RMK A01 T02190129  RH  058%=      5-min Rain = 0
KASR 151235Z 07007KT 22/13 A2995 RMK A01 T02160129  RH  059%=      5-min Rain = 0
KASR 151240Z 09006KT 22/13 A2995 RMK A01 T02170129  RH  058%=      5-min Rain = 0
KASR 151245Z 10005KT 22/13 A2996 RMK A01 T02200131  RH  058%=      5-min Rain = 0
KASR 151250Z 08007KT 22/13 A2996 RMK A01 T02220132  RH  058%=      5-min Rain = 0
KASR 151255Z 09006KT 22/13 A2996 RMK A01 T02230132  RH  058%=      5-min Rain = 0
KASR 151300Z 11005KT 23/13 A2996 RMK A01 T02250133  RH  057%=      5-min Rain = 0
KASR 151305Z 10005KT 23/13 A2996 RMK A01 T02260133  RH  057%=      5-min Rain = 0
KASR 151310Z 09004KT 23/13 A2996 RMK A01 T02270134  RH  057%=      5-min Rain = 0
KASR 151315Z 08006KT 23/13 A2996 RMK A01 T02270134  RH  057%=      5-min Rain = 0
KASR 151320Z 08006KT 23/14 A2996 RMK A01 T02250135  RH  058%=      5-min Rain = 0
KASR 151325Z 08007KT 23/14 A2996 RMK A01 T02260136  RH  058%=      5-min Rain = 0
KASR 151330Z 09006KT 23/14 A2996 RMK A01 T02270137  RH  058%=      5-min Rain = 0
KASR 151335Z 09006KT 23/14 A2997 RMK A01 T02300139  RH  057%=      5-min Rain = 0
KASR 151340Z 09007KT 24/14 A2997 RMK A01 T02370139  RH  055%=      5-min Rain = 0
KASR 151345Z 10006G11KT 24/14 A2997 RMK A01 T02390140  RH  055%=      5-min Rain = 0
KASR 151350Z 08006KT 24/14 A2996 RMK A01 T02420142  RH  054%=      5-min Rain = 0
KASR 151355Z 08008KT 25/14 A2996 RMK A01 T02450141  RH  053%=      5-min Rain = 0
KASR 151400Z 09007KT 25/14 A2996 RMK A01 T02450142  RH  054%=      5-min Rain = 0
KASR 151405Z 09007KT 25/14 A2996 RMK A01 T02460143  RH  054%=      5-min Rain = 0
KASR 151410Z 10008KT 25/14 A2997 RMK A01 T02510144  RH  052%=      5-min Rain = 0
KASR 151415Z 10007KT 26/15 A2996 RMK A01 T02550145  RH  052%=      5-min Rain = 0
KASR 151420Z 11004KT 26/15 A2996 RMK A01 T02570146  RH  051%=      5-min Rain = 0
KASR 151425Z 12004KT 26/15 A2996 RMK A01 T02570146  RH  051%=      5-min Rain = 0
KASR 151430Z 11004KT 26/15 A2997 RMK A01 T02610146  RH  050%=      5-min Rain = 0
KASR 151435Z 11003KT 27/15 A2997 RMK A01 T02660145  RH  049%=      5-min Rain = 0
KASR 151440Z 07004KT 27/15 A2996 RMK A01 T02720147  RH  048%=      5-min Rain = 0
KASR 151445Z 07004KT 27/15 A2996 RMK A01 T02670148  RH  049%=      5-min Rain = 0
KASR 151450Z 07002KT 27/15 A2996 RMK A01 T02690148  RH  049%=      5-min Rain = 0
KASR 151455Z 12005G11KT 27/15 A2996 RMK A01 T02670149  RH  049%=      5-min Rain = 0
KASR 151500Z 10006KT 27/15 A2996 RMK A01 T02670148  RH  049%=      5-min Rain = 0
KASR 151505Z 08005KT 27/15 A2996 RMK A01 T02720147  RH  047%=      5-min Rain = 0
KASR 151510Z 10005KT 27/15 A2996 RMK A01 T02740145  RH  046%=      5-min Rain = 0
KASR 151515Z 09006KT 27/14 A2996 RMK A01 T02700144  RH  047%=      5-min Rain = 0
KASR 151520Z 06004G9KT 27/15 A2996 RMK A01 T02690146  RH  048%=      5-min Rain = 0
KASR 151525Z 09005KT 27/15 A2996 RMK A01 T02710148  RH  048%=      5-min Rain = 0
KASR 151530Z 05005KT 27/15 A2996 RMK A01 T02690149  RH  049%=      5-min Rain = 0
KASR 151535Z 06005KT 27/15 A2996 RMK A01 T02670151  RH  050%=      5-min Rain = 0
KASR 151540Z 05002KT 27/15 A2997 RMK A01 T02670151  RH  050%=      5-min Rain = 0
KASR 151545Z 11002KT 27/15 A2997 RMK A01 T02670152  RH  050%=      5-min Rain = 0
KASR 151550Z 27001KT 27/15 A2997 RMK A01 T02670151  RH  050%=      5-min Rain = 0
KASR 151555Z 28002KT 27/15 A2998 RMK A01 T02690152  RH  050%=      5-min Rain = 0
KASR 151600Z 00004KT 27/15 A2998 RMK A01 T02710152  RH  049%=      5-min Rain = 0
KASR 151605Z 00002KT 27/15 A2998 RMK A01 T02710151  RH  049%=      5-min Rain = 0
KASR 151610Z 00004KT 27/15 A2998 RMK A01 T02710151  RH  049%=      5-min Rain = 0
KASR 151615Z 03002KT 27/15 A2999 RMK A01 T02740153  RH  049%=      5-min Rain = 0
KASR 151620Z 07004KT 28/15 A2999 RMK A01 T02770153  RH  048%=      5-min Rain = 0
KASR 151625Z 08002KT 28/15 A2999 RMK A01 T02780154  RH  048%=      5-min Rain = 0
KASR 151630Z 07002KT 28/15 A2999 RMK A01 T02820154  RH  047%=      5-min Rain = 0
KASR 151635Z 00003KT 28/15 A2999 RMK A01 T02830152  RH  046%=      5-min Rain = 0
KASR 151640Z 35006KT 28/15 A2999 RMK A01 T02770152  RH  047%=      5-min Rain = 0
KASR 151645Z 03003G8KT 28/15 A2999 RMK A01 T02780154  RH  048%=      5-min Rain = 0
KASR 151650Z 00005KT 28/15 A2999 RMK A01 T02830154  RH  046%=      5-min Rain = 0
KASR 151655Z 32004KT 28/15 A2999 RMK A01 T02830154  RH  046%=      5-min Rain = 0
KASR 151700Z 32004KT 29/15 A2998 RMK A01 T02870154  RH  045%=      5-min Rain = 0
KASR 151705Z 32003KT 29/15 A2998 RMK A01 T02860153  RH  045%=      5-min Rain = 0
KASR 151710Z 22003KT 29/15 A2998 RMK A01 T02910154  RH  045%=      5-min Rain = 0
KASR 151715Z 04004KT 30/16 A2998 RMK A01 T02950155  RH  044%=      5-min Rain = 0
KASR 151720Z 04006KT 30/16 A2998 RMK A01 T03000156  RH  043%=      5-min Rain = 0
KASR 151725Z 07006KT 30/16 A2998 RMK A01 T03020155  RH  042%=      5-min Rain = 0
KASR 151730Z 07003KT 30/15 A2998 RMK A01 T03010154  RH  042%=      5-min Rain = 0
KASR 151735Z 06002KT 30/15 A2998 RMK A01 T02980153  RH  042%=      5-min Rain = 0
KASR 151740Z 10002KT 30/15 A2997 RMK A01 T03010153  RH  042%=      5-min Rain = 0
KASR 151745Z 04003G8KT 30/15 A2997 RMK A01 T03020153  RH  041%=      5-min Rain = 0
KASR 151750Z 10004KT 31/15 A2997 RMK A01 T03090154  RH  040%=      5-min Rain = 0
KASR 151755Z 00005KT 31/15 A2997 RMK A01 T03100152  RH  039%=      5-min Rain = 0
KASR 151800Z 03004KT 31/15 A2996 RMK A01 T03100151  RH  039%=      5-min Rain = 0
KASR 151805Z 10005G11KT 31/15 A2996 RMK A01 T03140154  RH  039%=      5-min Rain = 0
KASR 151810Z 09008G13KT 32/16 A2996 RMK A01 T03180157  RH  039%=      5-min Rain = 0
KASR 151815Z 09009G14KT 31/16 A2996 RMK A01 T03140155  RH  039%=      5-min Rain = 0
KASR 151820Z 09008KT 31/16 A2996 RMK A01 T03130155  RH  039%=      5-min Rain = 0
KASR 151825Z 10005G10KT 31/16 A2996 RMK A01 T03100155  RH  040%=      5-min Rain = 0
KASR 151830Z 12007KT 31/16 A2996 RMK A01 T03120155  RH  039%=      5-min Rain = 0
KASR 151835Z 11006G12KT 32/15 A2996 RMK A01 T03150154  RH  039%=      5-min Rain = 0
KASR 151840Z 13004G10KT 31/15 A2996 RMK A01 T03100153  RH  039%=      5-min Rain = 0
KASR 151845Z 16003KT 31/15 A2996 RMK A01 T03120152  RH  039%=      5-min Rain = 0
KASR 151850Z 10007G12KT 32/15 A2996 RMK A01 T03180153  RH  038%=      5-min Rain = 0
KASR 151855Z 06006G11KT 32/15 A2995 RMK A01 T03160152  RH  038%=      5-min Rain = 0
KASR 151900Z 08006G12KT 32/15 A2995 RMK A01 T03170153  RH  038%=      5-min Rain = 0
KASR 151905Z 10006KT 32/16 A2995 RMK A01 T03180155  RH  038%=      5-min Rain = 0
KASR 151910Z 07005G11KT 32/16 A2995 RMK A01 T03220155  RH  037%=      5-min Rain = 0
KASR 151915Z 16005KT 32/15 A2995 RMK A01 T03240154  RH  037%=      5-min Rain = 0
KASR 151920Z 15003KT 33/15 A2995 RMK A01 T03280152  RH  036%=      5-min Rain = 0
KASR 151925Z 14007KT 32/15 A2995 RMK A01 T03230152  RH  036%=      5-min Rain = 0
KASR 151930Z 12007KT 32/15 A2995 RMK A01 T03220152  RH  037%=      5-min Rain = 0
KASR 151935Z 14005G11KT 32/15 A2995 RMK A01 T03230150  RH  036%=      5-min Rain = 0
KASR 151940Z 12004G10KT 32/15 A2994 RMK A01 T03190152  RH  037%=      5-min Rain = 0
KASR 151945Z 15004G9KT 33/15 A2994 RMK A01 T03270153  RH  036%=      5-min Rain = 0
KASR 151950Z 11006KT 33/15 A2994 RMK A01 T03330152  RH  034%=      5-min Rain = 0
KASR 151955Z 12006KT 33/15 A2993 RMK A01 T03340152  RH  034%=      5-min Rain = 0
KASR 152000Z 17004KT 33/15 A2993 RMK A01 T03330150  RH  034%=      5-min Rain = 0
KASR 152005Z 21002G7KT 33/15 A2993 RMK A01 T03300150  RH  035%=      5-min Rain = 0
KASR 152010Z 13003G8KT 33/15 A2992 RMK A01 T03330151  RH  034%=      5-min Rain = 0
KASR 152015Z 12005G12KT 34/16 A2992 RMK A01 T03360155  RH  034%=      5-min Rain = 0
KASR 152020Z 08007KT 34/16 A2992 RMK A01 T03370155  RH  034%=      5-min Rain = 0
KASR 152025Z 06007KT 34/16 A2992 RMK A01 T03360155  RH  034%=      5-min Rain = 0
KASR 152030Z 08007G13KT 34/15 A2991 RMK A01 T03360154  RH  034%=      5-min Rain = 0
KASR 152035Z 10005G10KT 33/16 A2991 RMK A01 T03340156  RH  035%=      5-min Rain = 0
KASR 152040Z 09007G13KT 34/16 A2991 RMK A01 T03370157  RH  035%=      5-min Rain = 0
KASR 152045Z 12009KT 33/16 A2991 RMK A01 T03340158  RH  036%=      5-min Rain = 0
KASR 152050Z 11004KT 32/16 A2991 RMK A01 T03230157  RH  038%=      5-min Rain = 0
KASR 152055Z 03001KT 32/16 A299 RMK A01 T03240156  RH  037%=      5-min Rain = 0
KASR 152100Z 11007G16KT 33/16 A299 RMK A01 T03250158  RH  038%=      5-min Rain = 0
KASR 152105Z 14003KT 32/16 A299 RMK A01 T03230161  RH  039%=      5-min Rain = 0
KASR 152110Z 16007KT 33/16 A2989 RMK A01 T03250161  RH  038%=      5-min Rain = 0
KASR 152115Z 12005KT 34/16 A2989 RMK A01 T03350161  RH  036%=      5-min Rain = 0
KASR 152120Z 09006KT 33/16 A2988 RMK A01 T03340160  RH  036%=      5-min Rain = 0
KASR 152125Z 15003KT 34/16 A2988 RMK A01 T03430159  RH  034%=      5-min Rain = 0
KASR 152130Z 03003G9KT 34/16 A2987 RMK A01 T03410159  RH  035%=      5-min Rain = 0
KASR 152135Z 08006G12KT 34/16 A2987 RMK A01 T03380160  RH  035%=      5-min Rain = 0
KASR 152140Z 07006KT 33/16 A2987 RMK A01 T03310159  RH  037%=      5-min Rain = 0
KASR 152145Z 09007KT 33/16 A2987 RMK A01 T03310159  RH  037%=      5-min Rain = 0
KASR 152150Z 10006KT 33/16 A2987 RMK A01 T03300159  RH  037%=      5-min Rain = 0
KASR 152155Z 09006KT 34/16 A2987 RMK A01 T03390159  RH  035%=      5-min Rain = 0
KASR 152200Z 10007G12KT 35/16 A2986 RMK A01 T03460159  RH  034%=      5-min Rain = 0
KASR 152205Z 14005KT 35/16 A2986 RMK A01 T03480157  RH  033%=      5-min Rain = 0
KASR 152210Z 14003G11KT 34/16 A2986 RMK A01 T03380157  RH  035%=      5-min Rain = 0
KASR 152215Z 14006KT 33/16 A2986 RMK A01 T03340155  RH  035%=      5-min Rain = 0
KASR 152220Z 14005KT 33/14 A2986 RMK A01 T03340141  RH  032%=      5-min Rain = 0
KASR 152225Z 10005G10KT 33/15 A2986 RMK A01 T03320152  RH  035%=      5-min Rain = 0
KASR 152230Z 09006G11KT 33/16 A2986 RMK A01 T03310157  RH  036%=      5-min Rain = 0
KASR 152235Z 09007KT 33/16 A2987 RMK A01 T03280161  RH  038%=      5-min Rain = 0
KASR 152240Z 08006KT 33/16 A2987 RMK A01 T03270164  RH  039%=      5-min Rain = 0
KASR 152245Z 09006KT 33/16 A2987 RMK A01 T03270163  RH  038%=      5-min Rain = 0
KASR 152250Z 11005KT 33/15 A2987 RMK A01 T03280151  RH  035%=      5-min Rain = 0
KASR 152255Z 12006KT 33/15 A2987 RMK A01 T03270148  RH  035%=      5-min Rain = 0
KASR 152300Z 13006KT 33/16 A2987 RMK A01 T03250156  RH  037%=      5-min Rain = 0
KASR 152305Z 15006KT 32/16 A2987 RMK A01 T03230160  RH  038%=      5-min Rain = 0
KASR 152310Z 10004KT 32/16 A2986 RMK A01 T03220160  RH  039%=      5-min Rain = 0
KASR 152315Z 13004KT 32/16 A2986 RMK A01 T03210160  RH  039%=      5-min Rain = 0
KASR 152320Z 12006KT 32/15 A2985 RMK A01 T03210153  RH  037%=      5-min Rain = 0
KASR 152325Z 13005KT 32/15 A2986 RMK A01 T03200153  RH  037%=      5-min Rain = 0
KASR 152330Z 13006KT 32/15 A2986 RMK A01 T03200154  RH  038%=      5-min Rain = 0
KASR 152335Z 11007KT 32/16 A2986 RMK A01 T03190158  RH  039%=      5-min Rain = 0
KASR 152340Z 11005KT 32/16 A2986 RMK A01 T03180158  RH  039%=      5-min Rain = 0
KASR 152345Z 11005KT 32/16 A2986 RMK A01 T03170156  RH  039%=      5-min Rain = 0
KASR 152350Z 11006KT 32/15 A2987 RMK A01 T03180152  RH  038%=      5-min Rain = 0
KASR 152355Z 13006KT 32/15 A2987 RMK A01 T03190148  RH  036%=      5-min Rain = 0
KASR 160000Z 16007KT 32/15 A2986 RMK A01 T03190147  RH  036%=      5-min Rain = 0
KASR 160005Z 19008KT 32/15 A2986 RMK A01 T03200146  RH  036%=      5-min Rain = 0
KASR 160010Z 21009KT 31/16 A2986 RMK A01 T03140162  RH  041%=      5-min Rain = 0
KASR 160015Z 20011G18KT 31/16 A2986 RMK A01 T03050158  RH  042%=      5-min Rain = 0
KASR 160020Z 19013G19KT 28/14 A2986 RMK A01 T02830143  RH  043%=      5-min Rain = 0
KASR 160025Z 20013G18KT 28/13 A2987 RMK A01 T02790134  RH  042%=      5-min Rain = 0
KASR 160030Z 24007KT 28/13 A2988 RMK A01 T02800133  RH  041%=      5-min Rain = 0
KASR 160035Z 32012G17KT 29/12 A2989 RMK A01 T02850121  RH  037%=      5-min Rain = 0
KASR 160040Z 01010G19KT 29/11 A2989 RMK A01 T02890114  RH  034%=      5-min Rain = 0
KASR 160045Z 05007G18KT 30/12 A2987 RMK A01 T02980115  RH  033%=      5-min Rain = 0
KASR 160050Z 03009KT 28/12 A2988 RMK A01 T02790123  RH  039%=      5-min Rain = 0
KASR 160055Z 07013G22KT 28/13 A2987 RMK A01 T02760129  RH  041%=      5-min Rain = 0
KASR 160100Z 08017G26KT 27/11 A2986 RMK A01 T02660107  RH  038%=      5-min Rain = 0
KASR 160105Z 09017G26KT 26/13 A2986 RMK A01 T02620131  RH  045%=      5-min Rain = 0
KASR 160110Z 11012G19KT 26/16 A2987 RMK A01 T02580159  RH  056%=      5-min Rain = 0
KASR 160115Z 11015G25KT 25/15 A2988 RMK A01 T02510154  RH  056%=      5-min Rain = 0
KASR 160120Z 11015G23KT 24/15 A2988 RMK A01 T02430148  RH  056%=      5-min Rain = 0
KASR 160125Z 11015G23KT 24/15 A2987 RMK A01 T02410146  RH  057%=      5-min Rain = 0
KASR 160130Z 11014G23KT 24/15 A2987 RMK A01 T02390151  RH  059%=      5-min Rain = 0
KASR 160135Z 12016G24KT 24/17 A2987 RMK A01 T02360166  RH  066%=      5-min Rain = 0
KASR 160140Z 12015G25KT 23/17 A2987 RMK A01 T02340169  RH  069%=      5-min Rain = 0
KASR 160145Z 13013G22KT 23/17 A2987 RMK A01 T02330168  RH  068%=      5-min Rain = 0
KASR 160150Z 14014G21KT 23/17 A2987 RMK A01 T02330170  RH  069%=      5-min Rain = 0
KASR 160155Z 13013G20KT 23/17 A2987 RMK A01 T02310168  RH  069%=      5-min Rain = 0
KASR 160200Z 13011G19KT 23/17 A2986 RMK A01 T02300167  RH  069%=      5-min Rain = 0
KASR 160205Z 13011G17KT 23/17 A2986 RMK A01 T02290168  RH  070%=      5-min Rain = 0
KASR 160210Z 12011G19KT 23/17 A2986 RMK A01 T02290169  RH  071%=      5-min Rain = 0
KASR 160215Z 13008KT 23/17 A2987 RMK A01 T02280170  RH  072%=      5-min Rain = 0
KASR 160220Z 13009KT 23/17 A2988 RMK A01 T02280171  RH  072%=      5-min Rain = 0
KASR 160225Z 12009KT 23/17 A299 RMK A01 T02270171  RH  072%=      5-min Rain = 0
KASR 160230Z 10007KT 23/17 A2991 RMK A01 T02270172  RH  073%=      5-min Rain = 0
KASR 160235Z 07008KT 23/17 A2993 RMK A01 T02270174  RH  074%=      5-min Rain = 0
KASR 160240Z 07005KT 23/18 A2995 RMK A01 T02270175  RH  074%=      5-min Rain = 0
KASR 160245Z 10005KT 23/18 A2995 RMK A01 T02280175  RH  074%=      5-min Rain = 0
KASR 160250Z 08007KT 23/18 A2996 RMK A01 T02280175  RH  074%=      5-min Rain = 0
KASR 160255Z 10007KT 23/18 A2996 RMK A01 T02270175  RH  074%=      5-min Rain = 0
KASR 160300Z 09007KT 23/18 A2996 RMK A01 T02260175  RH  074%=      5-min Rain = 0
KASR 160305Z 12006KT 23/17 A2996 RMK A01 T02250174  RH  075%=      5-min Rain = 0
KASR 160310Z 12006KT 23/17 A2996 RMK A01 T02250173  RH  074%=      5-min Rain = 0
KASR 160315Z 14008KT 23/17 A2996 RMK A01 T02250173  RH  074%=      5-min Rain = 0
KASR 160320Z 13007G12KT 23/17 A2997 RMK A01 T02250173  RH  074%=      5-min Rain = 0
KASR 160325Z 13007G12KT 22/17 A2997 RMK A01 T02240174  RH  075%=      5-min Rain = 0
KASR 160330Z 14009KT 22/18 A2996 RMK A01 T02230175  RH  076%=      5-min Rain = 0
KASR 160335Z 14008G13KT 22/18 A2996 RMK A01 T02230177  RH  077%=      5-min Rain = 0
KASR 160340Z 15008G14KT 22/18 A2996 RMK A01 T02230177  RH  077%=      5-min Rain = 0
KASR 160345Z 15009KT 22/17 A2996 RMK A01 T02240174  RH  075%=      5-min Rain = 0
KASR 160350Z 16010G15KT 22/17 A2996 RMK A01 T02240169  RH  073%=      5-min Rain = 0
KASR 160355Z 15012G19KT 23/16 A2996 RMK A01 T02260159  RH  068%=      5-min Rain = 0
KASR 160400Z 16011G16KT 23/15 A2996 RMK A01 T02270154  RH  065%=      5-min Rain = 0
KASR 160405Z 16009G14KT 23/15 A2996 RMK A01 T02260154  RH  065%=      5-min Rain = 0
KASR 160410Z 17009KT 23/15 A2996 RMK A01 T02250154  RH  065%=      5-min Rain = 0
KASR 160415Z 16007KT 23/15 A2996 RMK A01 T02250153  RH  065%=      5-min Rain = 0
KASR 160420Z 18006KT 22/16 A2998 RMK A01 T02230157  RH  067%=      5-min Rain = 0
KASR 160425Z 26003KT 22/16 A30 RMK A01 T02220158  RH  069%=      5-min Rain = 0
KASR 160430Z 34011G17KT 22/16 A3004 RMK A01 T02220158  RH  068%=      5-min Rain = 0
KASR 160435Z 35019G29KT 22/16 A3005 RMK A01 T02240162  RH  069%=      5-min Rain = 0
KASR 160440Z 35016G24KT 21/17 A3005 RMK A01 T02130174  RH  080%=      5-min Rain = 0.01
KASR 160445Z 01008KT 21/18 A3005 RMK A01 T02070176  RH  084%=      5-min Rain = 0
KASR 160450Z 00008KT 21/17 A3005 RMK A01 T02070171  RH  082%=      5-min Rain = 0
KASR 160455Z 01009KT 21/17 A3004 RMK A01 T02070170  RH  081%=      5-min Rain = 0

Page generated in 0.0305 seconds.